sensor_id;sensor_type;location;lat;lon;timestamp;pressure;altitude;pressure_sealevel;temperature;humidity
49515;BME280;35415;47.870;16.058;2023-05-12T00:00:07;97184.22;;;11.66;100.00
49515;BME280;35415;47.870;16.058;2023-05-12T00:02:35;97164.09;;;11.49;100.00
49515;BME280;35415;47.870;16.058;2023-05-12T00:05:03;97186.09;;;11.66;100.00
49515;BME280;35415;47.870;16.058;2023-05-12T00:07:30;97184.47;;;11.65;100.00
49515;BME280;35415;47.870;16.058;2023-05-12T00:09:57;97178.00;;;11.66;100.00
49515;BME280;35415;47.870;16.058;2023-05-12T00:12:25;97189.06;;;11.64;100.00
49515;BME280;35415;47.870;16.058;2023-05-12T00:14:53;97189.06;;;11.64;100.00
49515;BME280;35415;47.870;16.058;2023-05-12T00:17:20;97182.88;;;11.64;100.00
49515;BME280;35415;47.870;16.058;2023-05-12T00:19:48;97188.25;;;11.64;100.00
49515;BME280;35415;47.870;16.058;2023-05-12T00:22:15;97172.66;;;11.56;100.00
49515;BME280;35415;47.870;16.058;2023-05-12T00:24:42;97186.13;;;11.61;100.00
49515;BME280;35415;47.870;16.058;2023-05-12T00:27:09;97177.25;;;11.55;100.00
49515;BME280;35415;47.870;16.058;2023-05-12T00:29:39;97189.09;;;11.59;100.00
49515;BME280;35415;47.870;16.058;2023-05-12T00:32:06;97187.47;;;11.63;100.00
49515;BME280;35415;47.870;16.058;2023-05-12T00:34:33;97202.00;;;11.62;100.00
49515;BME280;35415;47.870;16.058;2023-05-12T00:37:00;97171.88;;;11.50;100.00
49515;BME280;35415;47.870;16.058;2023-05-12T00:39:27;97190.44;;;11.62;100.00
49515;BME280;35415;47.870;16.058;2023-05-12T00:41:55;97184.50;;;11.60;100.00
49515;BME280;35415;47.870;16.058;2023-05-12T00:44:23;97195.53;;;11.63;100.00
49515;BME280;35415;47.870;16.058;2023-05-12T00:46:52;97189.06;;;11.64;100.00
49515;BME280;35415;47.870;16.058;2023-05-12T00:49:20;97185.84;;;11.62;100.00
49515;BME280;35415;47.870;16.058;2023-05-12T00:51:47;97190.44;;;11.62;100.00
49515;BME280;35415;47.870;16.058;2023-05-12T00:54:15;97187.22;;;11.55;100.00
49515;BME280;35415;47.870;16.058;2023-05-12T00:56:43;97179.94;;;11.60;100.00
49515;BME280;35415;47.870;16.058;2023-05-12T00:59:10;97192.59;;;11.60;100.00
49515;BME280;35415;47.870;16.058;2023-05-12T01:01:38;97184.75;;;11.63;100.00
49515;BME280;35415;47.870;16.058;2023-05-12T01:04:06;97176.97;;;11.57;100.00
49515;BME280;35415;47.870;16.058;2023-05-12T01:06:37;97185.84;;;11.62;100.00
49515;BME280;35415;47.870;16.058;2023-05-12T01:09:10;97187.47;;;11.63;100.00
49515;BME280;35415;47.870;16.058;2023-05-12T01:11:38;97177.25;;;11.55;100.00
49515;BME280;35415;47.870;16.058;2023-05-12T01:14:05;97185.56;;;11.64;100.00
49515;BME280;35415;47.870;16.058;2023-05-12T01:16:35;97184.75;;;11.63;100.00
49515;BME280;35415;47.870;16.058;2023-05-12T01:19:17;97190.16;;;11.63;100.00
49515;BME280;35415;47.870;16.058;2023-05-12T01:21:49;97190.41;;;11.67;100.00
49515;BME280;35415;47.870;16.058;2023-05-12T01:24:19;97188.50;;;11.67;100.00
49515;BME280;35415;47.870;16.058;2023-05-12T01:26:49;97193.09;;;11.67;100.00
49515;BME280;35415;47.870;16.058;2023-05-12T01:29:17;97161.66;;;11.47;100.00
49515;BME280;35415;47.870;16.058;2023-05-12T01:31:45;97182.59;;;11.65;100.00
49515;BME280;35415;47.870;16.058;2023-05-12T01:34:15;97184.22;;;11.66;100.00
49515;BME280;35415;47.870;16.058;2023-05-12T01:36:43;97161.88;;;11.56;100.00
49515;BME280;35415;47.870;16.058;2023-05-12T01:39:10;97136.66;;;11.36;100.00
49515;BME280;35415;47.870;16.058;2023-05-12T01:41:37;97176.41;;;11.65;100.00
49515;BME280;35415;47.870;16.058;2023-05-12T01:44:07;97169.13;;;11.65;100.00
49515;BME280;35415;47.870;16.058;2023-05-12T01:46:34;97184.47;;;11.65;100.00
49515;BME280;35415;47.870;16.058;2023-05-12T01:49:01;97187.47;;;11.63;100.00
49515;BME280;35415;47.870;16.058;2023-05-12T01:51:29;97159.81;;;11.42;100.00
49515;BME280;35415;47.870;16.058;2023-05-12T01:53:56;97127.81;;;11.26;100.00
49515;BME280;35415;47.870;16.058;2023-05-12T01:56:23;97177.75;;;11.57;100.00
49515;BME280;35415;47.870;16.058;2023-05-12T01:58:51;97184.25;;;11.61;100.00
49515;BME280;35415;47.870;16.058;2023-05-12T02:01:20;97193.94;;;11.62;100.00
49515;BME280;35415;47.870;16.058;2023-05-12T02:03:49;97182.63;;;11.60;100.00
49515;BME280;35415;47.870;16.058;2023-05-12T02:06:16;97181.53;;;11.61;100.00
49515;BME280;35415;47.870;16.058;2023-05-12T02:08:43;97169.16;;;11.55;100.00
49515;BME280;35415;47.870;16.058;2023-05-12T02:11:10;97174.28;;;11.62;100.00
49515;BME280;35415;47.870;16.058;2023-05-12T02:13:37;97173.19;;;11.58;100.00
49515;BME280;35415;47.870;16.058;2023-05-12T02:16:05;97155.19;;;11.48;100.00
49515;BME280;35415;47.870;16.058;2023-05-12T02:18:34;97175.34;;;11.61;100.00
49515;BME280;35415;47.870;16.058;2023-05-12T02:21:02;97173.47;;;11.61;100.00
49515;BME280;35415;47.870;16.058;2023-05-12T02:23:30;97167.78;;;11.58;100.00
49515;BME280;35415;47.870;16.058;2023-05-12T02:25:57;97137.41;;;11.42;100.00
49515;BME280;35415;47.870;16.058;2023-05-12T02:28:24;97164.28;;;11.57;100.00
49515;BME280;35415;47.870;16.058;2023-05-12T02:30:51;97168.34;;;11.60;100.00
49515;BME280;35415;47.870;16.058;2023-05-12T02:33:20;97161.31;;;11.59;100.00
49515;BME280;35415;47.870;16.058;2023-05-12T02:35:49;97160.28;;;11.60;100.00
49515;BME280;35415;47.870;16.058;2023-05-12T02:38:16;97157.56;;;11.60;100.00
49515;BME280;35415;47.870;16.058;2023-05-12T02:40:43;97150.03;;;11.57;100.00
49515;BME280;35415;47.870;16.058;2023-05-12T02:43:11;97154.31;;;11.58;100.00
49515;BME280;35415;47.870;16.058;2023-05-12T02:45:38;97155.69;;;11.55;100.00
49515;BME280;35415;47.870;16.058;2023-05-12T02:48:06;97147.88;;;11.54;100.00
49515;BME280;35415;47.870;16.058;2023-05-12T02:50:33;97150.84;;;11.52;100.00
49515;BME280;35415;47.870;16.058;2023-05-12T02:53:13;97146.59;;;11.46;100.00
49515;BME280;35415;47.870;16.058;2023-05-12T02:55:43;97146.03;;;11.49;100.00
49515;BME280;35415;47.870;16.058;2023-05-12T02:58:11;97154.38;;;11.48;100.00
49515;BME280;35415;47.870;16.058;2023-05-12T03:00:38;97146.59;;;11.46;100.00
49515;BME280;35415;47.870;16.058;2023-05-12T03:03:05;97154.94;;;11.44;100.00
49515;BME280;35415;47.870;16.058;2023-05-12T03:05:32;97150.66;;;11.43;100.00
49515;BME280;35415;47.870;16.058;2023-05-12T03:07:59;97152.25;;;11.39;100.00
49515;BME280;35415;47.870;16.058;2023-05-12T03:10:29;97153.06;;;11.40;100.00
49515;BME280;35415;47.870;16.058;2023-05-12T03:12:56;97151.44;;;11.39;100.00
49515;BME280;35415;47.870;16.058;2023-05-12T03:15:23;97153.34;;;11.38;100.00
49515;BME280;35415;47.870;16.058;2023-05-12T03:17:50;97161.69;;;11.37;100.00
49515;BME280;35415;47.870;16.058;2023-05-12T03:20:19;97110.63;;;11.06;100.00
49515;BME280;35415;47.870;16.058;2023-05-12T03:22:50;97133.47;;;11.19;100.00
49515;BME280;35415;47.870;16.058;2023-05-12T03:25:17;97155.78;;;11.35;100.00
49515;BME280;35415;47.870;16.058;2023-05-12T03:27:46;97157.13;;;11.32;100.00
49515;BME280;35415;47.870;16.058;2023-05-12T03:30:17;97155.81;;;11.30;100.00
49515;BME280;35415;47.870;16.058;2023-05-12T03:32:44;97153.91;;;11.30;100.00
49515;BME280;35415;47.870;16.058;2023-05-12T03:35:15;97114.19;;;10.97;100.00
49515;BME280;35415;47.870;16.058;2023-05-12T03:37:43;97157.16;;;11.27;100.00
49515;BME280;35415;47.870;16.058;2023-05-12T03:40:11;97157.44;;;11.26;100.00
49515;BME280;35415;47.870;16.058;2023-05-12T03:42:42;97146.97;;;11.14;100.00
49515;BME280;35415;47.870;16.058;2023-05-12T03:45:12;97164.44;;;11.22;100.00
49515;BME280;35415;47.870;16.058;2023-05-12T03:47:39;97159.06;;;11.17;100.00
49515;BME280;35415;47.870;16.058;2023-05-12T03:50:08;97145.38;;;11.03;100.00
49515;BME280;35415;47.870;16.058;2023-05-12T03:52:35;97157.72;;;11.14;100.00
49515;BME280;35415;47.870;16.058;2023-05-12T03:55:06;97124.16;;;10.86;100.00
49515;BME280;35415;47.870;16.058;2023-05-12T03:57:33;97169.31;;;11.14;100.00
49515;BME280;35415;47.870;16.058;2023-05-12T04:00:06;97166.88;;;11.13;100.00
49515;BME280;35415;47.870;16.058;2023-05-12T04:02:36;97170.38;;;11.13;100.00
49515;BME280;35415;47.870;16.058;2023-05-12T04:05:04;97171.47;;;11.12;100.00
49515;BME280;35415;47.870;16.058;2023-05-12T04:07:32;97186.00;;;11.11;100.00
49515;BME280;35415;47.870;16.058;2023-05-12T04:10:00;97183.59;;;11.10;100.00
49515;BME280;35415;47.870;16.058;2023-05-12T04:12:27;97188.16;;;11.09;100.00
49515;BME280;35415;47.870;16.058;2023-05-12T04:14:54;97188.97;;;11.10;100.00
49515;BME280;35415;47.870;16.058;2023-05-12T04:17:22;97183.56;;;11.05;100.00
49515;BME280;35415;47.870;16.058;2023-05-12T04:19:53;97192.75;;;11.09;100.00
49515;BME280;35415;47.870;16.058;2023-05-12T04:22:20;97191.91;;;11.08;100.00
49515;BME280;35415;47.870;16.058;2023-05-12T04:24:48;97192.75;;;11.09;100.00
49515;BME280;35415;47.870;16.058;2023-05-12T04:27:15;97193.78;;;11.08;100.00
49515;BME280;35415;47.870;16.058;2023-05-12T04:29:42;97188.97;;;11.05;100.00
49515;BME280;35415;47.870;16.058;2023-05-12T04:32:09;97184.94;;;10.97;100.00
49515;BME280;35415;47.870;16.058;2023-05-12T04:34:36;97190.06;;;10.99;100.00
49515;BME280;35415;47.870;16.058;2023-05-12T04:37:05;97203.22;;;11.05;100.00
49515;BME280;35415;47.870;16.058;2023-05-12T04:39:32;97198.91;;;11.04;100.00
49515;BME280;35415;47.870;16.058;2023-05-12T04:41:59;97196.25;;;10.99;100.00
49515;BME280;35415;47.870;16.058;2023-05-12T04:44:27;97204.56;;;11.03;100.00
49515;BME280;35415;47.870;16.058;2023-05-12T04:46:54;97177.16;;;10.85;100.00
49515;BME280;35415;47.870;16.058;2023-05-12T04:49:22;97201.09;;;11.02;100.00
49515;BME280;35415;47.870;16.058;2023-05-12T04:51:50;97199.47;;;11.01;100.00
49515;BME280;35415;47.870;16.058;2023-05-12T04:54:21;97173.41;;;10.81;100.00
49515;BME280;35415;47.870;16.058;2023-05-12T04:56:59;97138.97;;;10.58;100.00
49515;BME280;35415;47.870;16.058;2023-05-12T04:59:26;97156.44;;;10.71;100.00
49515;BME280;35415;47.870;16.058;2023-05-12T05:01:54;97154.31;;;10.68;100.00
49515;BME280;35415;47.870;16.058;2023-05-12T05:04:27;97126.88;;;10.55;100.00
49515;BME280;35415;47.870;16.058;2023-05-12T05:06:54;97196.00;;;10.96;100.00
49515;BME280;35415;47.870;16.058;2023-05-12T05:09:23;97196.53;;;10.98;100.00
49515;BME280;35415;47.870;16.058;2023-05-12T05:11:50;97168.81;;;10.72;100.00
49515;BME280;35415;47.870;16.058;2023-05-12T05:14:18;97161.56;;;10.67;100.00
49515;BME280;35415;47.870;16.058;2023-05-12T05:16:45;97177.44;;;10.74;100.00
49515;BME280;35415;47.870;16.058;2023-05-12T05:19:13;97152.97;;;10.55;100.00
49515;BME280;35415;47.870;16.058;2023-05-12T05:21:48;97129.03;;;10.53;100.00
49515;BME280;35415;47.870;16.058;2023-05-12T05:24:15;97161.31;;;10.64;100.00
49515;BME280;35415;47.870;16.058;2023-05-12T05:26:44;97180.13;;;10.74;100.00
49515;BME280;35415;47.870;16.058;2023-05-12T05:29:11;97201.66;;;10.84;100.00
49515;BME280;35415;47.870;16.058;2023-05-12T05:31:38;97183.38;;;10.76;100.00
49515;BME280;35415;47.870;16.058;2023-05-12T05:34:06;97214.81;;;10.91;100.00
49515;BME280;35415;47.870;16.058;2023-05-12T05:36:33;97208.09;;;10.88;100.00
49515;BME280;35415;47.870;16.058;2023-05-12T05:39:00;97205.97;;;10.80;100.00
49515;BME280;35415;47.870;16.058;2023-05-12T05:41:28;97212.13;;;10.85;100.00
49515;BME280;35415;47.870;16.058;2023-05-12T05:43:58;97151.91;;;10.51;100.00
49515;BME280;35415;47.870;16.058;2023-05-12T05:46:26;97183.63;;;10.69;100.00
49515;BME280;35415;47.870;16.058;2023-05-12T05:48:55;97192.78;;;10.68;100.00
49515;BME280;35415;47.870;16.058;2023-05-12T05:51:22;97173.41;;;10.51;100.00
49515;BME280;35415;47.870;16.058;2023-05-12T05:53:50;97219.69;;;10.78;100.00
49515;BME280;35415;47.870;16.058;2023-05-12T05:56:18;97217.81;;;10.79;100.00
49515;BME280;35415;47.870;16.058;2023-05-12T05:58:45;97142.50;;;10.33;100.00
49515;BME280;35415;47.870;16.058;2023-05-12T06:01:14;97218.59;;;10.84;100.00
49515;BME280;35415;47.870;16.058;2023-05-12T06:03:42;97171.53;;;10.51;100.00
49515;BME280;35415;47.870;16.058;2023-05-12T06:06:12;97181.47;;;10.56;100.00
49515;BME280;35415;47.870;16.058;2023-05-12T06:08:39;97229.34;;;10.90;100.00
49515;BME280;35415;47.870;16.058;2023-05-12T06:11:06;97180.41;;;10.62;100.00
49515;BME280;35415;47.870;16.058;2023-05-12T06:13:33;97149.19;;;10.41;100.00
49515;BME280;35415;47.870;16.058;2023-05-12T06:19:04;97227.72;;;10.89;100.00
49515;BME280;35415;47.870;16.058;2023-05-12T06:21:32;97245.25;;;10.96;100.00
49515;BME280;35415;47.870;16.058;2023-05-12T06:24:00;97240.38;;;10.98;100.00
49515;BME280;35415;47.870;16.058;2023-05-12T06:26:28;97227.19;;;10.87;100.00
49515;BME280;35415;47.870;16.058;2023-05-12T06:28:56;97231.78;;;10.86;100.00
49515;BME280;35415;47.870;16.058;2023-05-12T06:31:23;97249.28;;;10.99;100.00
49515;BME280;35415;47.870;16.058;2023-05-12T06:33:50;97253.28;;;10.91;100.00
49515;BME280;35415;47.870;16.058;2023-05-12T06:36:19;97248.47;;;10.98;100.00
49515;BME280;35415;47.870;16.058;2023-05-12T06:38:49;97248.44;;;10.88;100.00
49515;BME280;35415;47.870;16.058;2023-05-12T06:41:18;97256.81;;;10.97;100.00
49515;BME280;35415;47.870;16.058;2023-05-12T06:43:46;97241.19;;;10.89;100.00
49515;BME280;35415;47.870;16.058;2023-05-12T06:46:16;97263.00;;;10.97;100.00
49515;BME280;35415;47.870;16.058;2023-05-12T06:48:43;97217.00;;;10.63;100.00
49515;BME280;35415;47.870;16.058;2023-05-12T06:51:11;97243.88;;;10.89;100.00
49515;BME280;35415;47.870;16.058;2023-05-12T06:53:40;97254.94;;;10.97;100.00
49515;BME280;35415;47.870;16.058;2023-05-12T06:56:08;97225.84;;;10.74;100.00
49515;BME280;35415;47.870;16.058;2023-05-12T06:58:36;97171.25;;;10.48;100.00
49515;BME280;35415;47.870;16.058;2023-05-12T07:01:03;97244.16;;;10.92;100.00
49515;BME280;35415;47.870;16.058;2023-05-12T07:03:31;97255.19;;;11.01;100.00
49515;BME280;35415;47.870;16.058;2023-05-12T07:05:59;97205.97;;;10.60;100.00
49515;BME280;35415;47.870;16.058;2023-05-12T07:08:26;97217.78;;;10.69;100.00
49515;BME280;35415;47.870;16.058;2023-05-12T07:10:58;97252.22;;;11.02;100.00
49515;BME280;35415;47.870;16.058;2023-05-12T07:13:26;97241.47;;;10.87;100.00
49515;BME280;35415;47.870;16.058;2023-05-12T07:15:53;97249.00;;;10.90;100.00
49515;BME280;35415;47.870;16.058;2023-05-12T07:18:20;97237.16;;;10.91;100.00
49515;BME280;35415;47.870;16.058;2023-05-12T07:20:48;97240.66;;;10.87;100.00
49515;BME280;35415;47.870;16.058;2023-05-12T07:23:15;97233.91;;;10.89;100.00
49515;BME280;35415;47.870;16.058;2023-05-12T07:25:42;97241.72;;;10.91;100.00
49515;BME280;35415;47.870;16.058;2023-05-12T07:28:11;97250.63;;;10.96;100.00
49515;BME280;35415;47.870;16.058;2023-05-12T07:30:38;97261.94;;;10.93;100.00
49515;BME280;35415;47.870;16.058;2023-05-12T07:33:05;97253.84;;;10.93;100.00
49515;BME280;35415;47.870;16.058;2023-05-12T07:35:33;97248.19;;;10.95;100.00
49515;BME280;35415;47.870;16.058;2023-05-12T07:38:00;97190.91;;;10.64;100.00
49515;BME280;35415;47.870;16.058;2023-05-12T07:40:28;97265.69;;;11.12;100.00
49515;BME280;35415;47.870;16.058;2023-05-12T07:42:59;97232.31;;;10.93;100.00
49515;BME280;35415;47.870;16.058;2023-05-12T07:45:31;97261.63;;;11.15;100.00
49515;BME280;35415;47.870;16.058;2023-05-12T07:47:59;97228.28;;;10.91;100.00
49515;BME280;35415;47.870;16.058;2023-05-12T07:50:26;97263.78;;;11.18;100.00
49515;BME280;35415;47.870;16.058;2023-05-12T07:52:54;97173.13;;;10.68;100.00
49515;BME280;35415;47.870;16.058;2023-05-12T07:55:24;97259.75;;;11.21;100.00
49515;BME280;35415;47.870;16.058;2023-05-12T07:57:51;97252.22;;;11.02;100.00
49515;BME280;35415;47.870;16.058;2023-05-12T08:00:19;97259.75;;;11.10;100.00
49515;BME280;35415;47.870;16.058;2023-05-12T08:02:48;97272.94;;;11.22;100.00
49515;BME280;35415;47.870;16.058;2023-05-12T08:05:16;97275.63;;;11.22;100.00
49515;BME280;35415;47.870;16.058;2023-05-12T08:07:45;97258.97;;;11.10;100.00
49515;BME280;35415;47.870;16.058;2023-05-12T08:10:13;97274.53;;;11.23;100.00
49515;BME280;35415;47.870;16.058;2023-05-12T08:12:40;97279.13;;;11.23;100.00
49515;BME280;35415;47.870;16.058;2023-05-12T08:15:08;97269.97;;;11.24;100.00
49515;BME280;35415;47.870;16.058;2023-05-12T08:20:38;97271.06;;;11.28;100.00
49515;BME280;35415;47.870;16.058;2023-05-12T08:23:06;97207.03;;;10.84;100.00
49515;BME280;35415;47.870;16.058;2023-05-12T08:25:33;97250.06;;;11.09;100.00
49515;BME280;35415;47.870;16.058;2023-05-12T08:28:35;97265.66;;;11.23;100.00
49515;BME280;35415;47.870;16.058;2023-05-12T08:31:02;97257.59;;;11.12;100.00
49515;BME280;35415;47.870;16.058;2023-05-12T08:33:36;97241.72;;;11.01;100.00
49515;BME280;35415;47.870;16.058;2023-05-12T08:36:05;97260.56;;;11.16;100.00
49515;BME280;35415;47.870;16.058;2023-05-12T08:38:33;97276.97;;;11.25;100.00
49515;BME280;35415;47.870;16.058;2023-05-12T08:41:10;97250.59;;;11.01;100.00
49515;BME280;35415;47.870;16.058;2023-05-12T08:43:41;97257.06;;;11.10;100.00
49515;BME280;35415;47.870;16.058;2023-05-12T08:46:10;97273.50;;;11.14;100.00
49515;BME280;35415;47.870;16.058;2023-05-12T08:48:39;97245.25;;;10.96;100.00
49515;BME280;35415;47.870;16.058;2023-05-12T08:51:09;97283.19;;;11.10;100.00
49515;BME280;35415;47.870;16.058;2023-05-12T08:53:37;97239.03;;;10.91;100.00
49515;BME280;35415;47.870;16.058;2023-05-12T08:56:06;97222.91;;;10.75;100.00
49515;BME280;35415;47.870;16.058;2023-05-12T08:58:35;97257.63;;;10.97;100.00
49515;BME280;35415;47.870;16.058;2023-05-12T09:01:03;97246.84;;;10.97;100.00
49515;BME280;35415;47.870;16.058;2023-05-12T09:03:33;97289.63;;;11.24;100.00
49515;BME280;35415;47.870;16.058;2023-05-12T09:06:00;97250.09;;;10.94;100.00
49515;BME280;35415;47.870;16.058;2023-05-12T09:08:32;97227.47;;;10.80;100.00
49515;BME280;35415;47.870;16.058;2023-05-12T09:11:00;97230.16;;;10.85;100.00
49515;BME280;35415;47.870;16.058;2023-05-12T09:13:34;97285.06;;;11.14;100.00
49515;BME280;35415;47.870;16.058;2023-05-12T09:16:06;97297.72;;;11.29;100.00
49515;BME280;35415;47.870;16.058;2023-05-12T09:18:44;97244.69;;;10.99;100.00
49515;BME280;35415;47.870;16.058;2023-05-12T09:21:13;97273.22;;;11.10;100.00
49515;BME280;35415;47.870;16.058;2023-05-12T09:23:51;97260.31;;;11.12;100.00
49515;BME280;35415;47.870;16.058;2023-05-12T09:26:18;97269.44;;;11.06;100.00
49515;BME280;35415;47.870;16.058;2023-05-12T09:28:45;97223.44;;;10.88;100.00
49515;BME280;35415;47.870;16.058;2023-05-12T09:31:16;97262.19;;;11.12;100.00
49515;BME280;35415;47.870;16.058;2023-05-12T09:33:44;97288.81;;;11.29;100.00
49515;BME280;35415;47.870;16.058;2023-05-12T09:36:15;97223.44;;;10.93;100.00
49515;BME280;35415;47.870;16.058;2023-05-12T09:38:45;97251.69;;;11.10;100.00
49515;BME280;35415;47.870;16.058;2023-05-12T09:41:12;97300.38;;;11.39;100.00
49515;BME280;35415;47.870;16.058;2023-05-12T09:43:44;97254.38;;;11.10;100.00
49515;BME280;35415;47.870;16.058;2023-05-12T09:46:12;97226.94;;;10.93;100.00
49515;BME280;35415;47.870;16.058;2023-05-12T09:48:40;97288.81;;;11.34;100.00
49515;BME280;35415;47.870;16.058;2023-05-12T09:51:08;97225.84;;;10.99;100.00
49515;BME280;35415;47.870;16.058;2023-05-12T09:53:41;97275.88;;;11.21;100.00
49515;BME280;35415;47.870;16.058;2023-05-12T09:56:16;97303.34;;;11.38;100.00
49515;BME280;35415;47.870;16.058;2023-05-12T09:58:48;97308.19;;;11.46;100.00
49515;BME280;35415;47.870;16.058;2023-05-12T10:01:17;97307.38;;;11.45;100.00
49515;BME280;35415;47.870;16.058;2023-05-12T10:03:47;97292.03;;;11.21;100.00
49515;BME280;35415;47.870;16.058;2023-05-12T10:09:19;97269.16;;;11.08;100.00
49515;BME280;35415;47.870;16.058;2023-05-12T10:11:52;97320.56;;;11.37;100.00
49515;BME280;35415;47.870;16.058;2023-05-12T10:14:21;97256.25;;;10.90;100.00
49515;BME280;35415;47.870;16.058;2023-05-12T10:16:49;97335.66;;;11.33;100.00
49515;BME280;35415;47.870;16.058;2023-05-12T10:19:17;97291.78;;;11.02;100.00
49515;BME280;35415;47.870;16.058;2023-05-12T10:21:46;97306.06;;;11.18;100.00
49515;BME280;35415;47.870;16.058;2023-05-12T10:24:14;97290.97;;;11.06;100.00
49515;BME280;35415;47.870;16.058;2023-05-12T10:26:42;97324.38;;;11.31;100.00
49515;BME280;35415;47.870;16.058;2023-05-12T10:29:11;97312.75;;;11.25;100.00
49515;BME280;35415;47.870;16.058;2023-05-12T10:31:39;97306.31;;;11.16;100.00
49515;BME280;35415;47.870;16.058;2023-05-12T10:34:06;97304.16;;;11.18;100.00
49515;BME280;35415;47.870;16.058;2023-05-12T10:36:42;97323.28;;;11.32;100.00
49515;BME280;35415;47.870;16.058;2023-05-12T10:39:12;97332.44;;;11.31;100.00
49515;BME280;35415;47.870;16.058;2023-05-12T10:41:41;97286.94;;;10.99;100.00
49515;BME280;35415;47.870;16.058;2023-05-12T10:44:10;97329.75;;;11.31;100.00
49515;BME280;35415;47.870;16.058;2023-05-12T10:46:37;97334.31;;;11.30;100.00
49515;BME280;35415;47.870;16.058;2023-05-12T10:49:07;97335.41;;;11.29;100.00
49515;BME280;35415;47.870;16.058;2023-05-12T10:51:46;97341.31;;;11.31;100.00
49515;BME280;35415;47.870;16.058;2023-05-12T10:54:19;97330.56;;;11.31;100.00
49515;BME280;35415;47.870;16.058;2023-05-12T10:56:47;97318.97;;;11.21;100.00
49515;BME280;35415;47.870;16.058;2023-05-12T10:59:17;97327.31;;;11.24;100.00
49515;BME280;35415;47.870;16.058;2023-05-12T11:01:58;97348.06;;;11.34;100.00
49515;BME280;35415;47.870;16.058;2023-05-12T11:04:39;97333.25;;;11.26;100.00
49515;BME280;35415;47.870;16.058;2023-05-12T11:07:08;97343.22;;;11.31;100.00
49515;BME280;35415;47.870;16.058;2023-05-12T11:09:38;97352.63;;;11.28;100.00
49515;BME280;35415;47.870;16.058;2023-05-12T11:12:07;97342.66;;;11.24;100.00
49515;BME280;35415;47.870;16.058;2023-05-12T11:14:37;97283.97;;;10.80;100.00
49515;BME280;35415;47.870;16.058;2023-05-12T11:17:05;97343.47;;;11.24;100.00
49515;BME280;35415;47.870;16.058;2023-05-12T11:19:32;97285.31;;;10.82;100.00
49515;BME280;35415;47.870;16.058;2023-05-12T11:22:04;97340.78;;;11.19;100.00
49515;BME280;35415;47.870;16.058;2023-05-12T11:24:32;97337.25;;;11.08;100.00
49515;BME280;35415;47.870;16.058;2023-05-12T11:26:59;97281.56;;;10.78;100.00
49515;BME280;35415;47.870;16.058;2023-05-12T11:29:26;97355.31;;;11.23;100.00
49515;BME280;35415;47.870;16.058;2023-05-12T11:31:55;97355.03;;;11.25;100.00
49515;BME280;35415;47.870;16.058;2023-05-12T11:34:25;97361.50;;;11.24;100.00
49515;BME280;35415;47.870;16.058;2023-05-12T11:36:54;97365.81;;;11.25;100.00
49515;BME280;35415;47.870;16.058;2023-05-12T11:39:23;97364.19;;;11.24;100.00
49515;BME280;35415;47.870;16.058;2023-05-12T11:41:51;97343.75;;;11.12;100.00
49515;BME280;35415;47.870;16.058;2023-05-12T11:44:21;97373.09;;;11.24;100.00
49515;BME280;35415;47.870;16.058;2023-05-12T11:47:00;97379.28;;;11.25;100.00
49515;BME280;35415;47.870;16.058;2023-05-12T11:49:28;97362.31;;;11.14;100.00
49515;BME280;35415;47.870;16.058;2023-05-12T11:51:56;97364.47;;;11.12;100.00
49515;BME280;35415;47.870;16.058;2023-05-12T11:54:27;97381.69;;;11.21;100.00
49515;BME280;35415;47.870;16.058;2023-05-12T11:56:57;97371.50;;;11.28;100.00
49515;BME280;35415;47.870;16.058;2023-05-12T11:59:29;97374.97;;;11.19;100.00
49515;BME280;35415;47.870;16.058;2023-05-12T12:01:59;97381.44;;;11.23;100.00
49515;BME280;35415;47.870;16.058;2023-05-12T12:04:31;97383.03;;;11.24;100.00
49515;BME280;35415;47.870;16.058;2023-05-12T12:06:58;97376.34;;;11.26;100.00
49515;BME280;35415;47.870;16.058;2023-05-12T12:09:33;97380.66;;;11.27;100.00
49515;BME280;35415;47.870;16.058;2023-05-12T12:18:07;97364.75;;;11.21;100.00
49515;BME280;35415;47.870;16.058;2023-05-12T12:20:38;97383.88;;;11.34;100.00
49515;BME280;35415;47.870;16.058;2023-05-12T12:23:52;97387.91;;;11.37;100.00
49515;BME280;35415;47.870;16.058;2023-05-12T12:29:46;97376.88;;;11.33;100.00
49515;BME280;35415;47.870;16.058;2023-05-12T12:32:18;97313.56;;;10.90;100.00
49515;BME280;35415;47.870;16.058;2023-05-12T12:37:43;97389.25;;;11.44;100.00
49515;BME280;35415;47.870;16.058;2023-05-12T12:40:22;97387.38;;;11.45;100.00
49515;BME280;35415;47.870;16.058;2023-05-12T12:42:56;97355.59;;;11.27;100.00
49515;BME280;35415;47.870;16.058;2023-05-12T12:51:28;97382.25;;;11.38;100.00
49515;BME280;35415;47.870;16.058;2023-05-12T12:53:57;97397.34;;;11.50;100.00
49515;BME280;35415;47.870;16.058;2023-05-12T12:56:24;97349.94;;;11.23;100.00
49515;BME280;35415;47.870;16.058;2023-05-12T12:58:51;97387.63;;;11.49;100.00
49515;BME280;35415;47.870;16.058;2023-05-12T13:01:18;97363.38;;;11.23;100.00
49515;BME280;35415;47.870;16.058;2023-05-12T13:03:45;97360.97;;;11.22;100.00
49515;BME280;35415;47.870;16.058;2023-05-12T13:06:12;97328.13;;;10.99;100.00
49515;BME280;35415;47.870;16.058;2023-05-12T13:08:40;97352.38;;;11.14;100.00
49515;BME280;35415;47.870;16.058;2023-05-12T13:11:11;97364.19;;;11.24;100.00
49515;BME280;35415;47.870;16.058;2023-05-12T13:13:38;97399.75;;;11.46;100.00
49515;BME280;35415;47.870;16.058;2023-05-12T13:16:06;97393.56;;;11.45;100.00